spider

Ветренная Англия



Катарский Эирбас не осилил приземлиться дважды и ушел на запасной... На континент, ибо тут везде печально. К примеру, Хитроу

EGLL 142320Z 22034G49KT 9000 -SHRA FEW028 BKN031 10/04 Q0976

long-TAF: EGLL 141709Z 1418/1524 20020G35KT 9999 SCT018 TEMPO 1418/1423 4000 +SHRA BKN009 BECMG 1420/1423 23025G46KT TEMPO 1423/1518 7000 SHRA BKN012 PROB30 TEMPO 1423/1504 23028G56KT BECMG 1505/1508 26022G38KT PROB30 TEMPO 1509/1516 3500 SHRA SHGS BKN012CB BECMG 1516/1519 27011KT